Time;durP1;ratioP1;P1;durP2;ratioP2;P2;SDS_P1;SDS_P2;PMS_P1;PMS_P2;Temp;Humidity;BMP_temperature;BMP_pressure;BME280_temperature;BME280_humidity;BME280_pressure;Samples;Min_cycle;Max_cycle;Signal;HPM_P1;HPM_P2
2023/07/24 00:02:04;;;;;;;3.07;2.20;;;18.60;99.90;;;;;;5059252;28;20196;-72
2023/07/24 00:04:31;;;;;;;4.43;2.90;;;18.70;99.90;;;;;;5066316;28;20249;-72
2023/07/24 00:06:57;;;;;;;3.00;2.73;;;18.70;99.90;;;;;;5067015;28;20998;-72
2023/07/24 00:09:23;;;;;;;4.17;3.20;;;18.70;99.90;;;;;;5064435;28;20411;-72
2023/07/24 00:11:48;;;;;;;3.60;2.80;;;18.70;99.90;;;;;;5064124;28;20177;-73
2023/07/24 00:14:15;;;;;;;3.87;2.67;;;18.70;99.90;;;;;;5066431;28;20769;-72
2023/07/24 00:16:41;;;;;;;5.57;2.40;;;18.70;99.90;;;;;;5062498;28;20288;-72
2023/07/24 00:19:07;;;;;;;5.97;3.70;;;18.70;99.90;;;;;;5065280;28;21003;-72
2023/07/24 00:21:32;;;;;;;3.20;2.73;;;18.60;99.90;;;;;;5060628;28;20180;-72
2023/07/24 00:23:58;;;;;;;3.97;2.97;;;18.70;99.90;;;;;;5062240;28;20520;-72
2023/07/24 00:26:24;;;;;;;3.37;3.07;;;18.70;99.90;;;;;;5066049;28;20204;-72
2023/07/24 00:28:50;;;;;;;2.87;2.67;;;18.70;99.90;;;;;;5062758;28;20181;-72
2023/07/24 00:31:15;;;;;;;5.80;3.60;;;18.70;99.90;;;;;;5068570;28;20224;-73
2023/07/24 00:33:41;;;;;;;4.10;2.90;;;18.70;99.90;;;;;;5068617;28;20639;-73
2023/07/24 00:36:06;;;;;;;3.30;2.63;;;18.70;99.90;;;;;;5061366;28;20230;-73
2023/07/24 00:38:32;;;;;;;4.50;3.17;;;18.60;99.90;;;;;;5068803;28;20169;-72
2023/07/24 00:40:58;;;;;;;3.73;3.43;;;18.60;99.90;;;;;;5059291;28;20178;-73
2023/07/24 00:43:24;;;;;;;3.57;3.00;;;18.60;99.90;;;;;;5066587;28;20236;-73
2023/07/24 00:45:49;;;;;;;4.23;3.13;;;18.60;99.90;;;;;;5064470;28;20173;-72
2023/07/24 00:48:15;;;;;;;6.10;3.13;;;18.60;99.90;;;;;;5065928;28;20221;-72
2023/07/24 00:50:43;;;;;;;6.03;2.97;;;18.70;99.90;;;;;;5062711;28;20578;-73
2023/07/24 00:53:10;;;;;;;3.87;2.80;;;18.70;99.90;;;;;;5063772;28;20894;-72
2023/07/24 00:55:36;;;;;;;3.47;3.17;;;18.70;99.90;;;;;;5060606;28;20408;-73
2023/07/24 00:58:03;;;;;;;3.87;2.90;;;18.70;99.90;;;;;;5063539;28;20989;-73
2023/07/24 01:00:29;;;;;;;3.33;2.57;;;18.70;99.90;;;;;;5066761;28;20185;-72
2023/07/24 01:02:56;;;;;;;3.80;2.90;;;18.60;99.90;;;;;;5062412;28;20423;-72
2023/07/24 01:05:24;;;;;;;3.00;2.70;;;18.60;99.90;;;;;;5065600;28;20261;-72
2023/07/24 01:07:51;;;;;;;3.37;3.07;;;18.60;99.90;;;;;;5061411;28;20466;-72
2023/07/24 01:10:16;;;;;;;5.20;3.17;;;18.60;99.90;;;;;;5063249;28;20491;-73
2023/07/24 01:12:56;;;;;;;3.93;3.50;;;18.60;99.90;;;;;;5067677;28;20550;-72
2023/07/24 01:15:52;;;;;;;3.93;2.60;;;18.60;99.90;;;;;;5062633;28;20590;-72
2023/07/24 01:18:18;;;;;;;3.53;3.00;;;18.60;99.90;;;;;;5064004;28;20436;-72
2023/07/24 01:20:50;;;;;;;3.80;3.20;;;18.60;99.90;;;;;;5061604;28;20498;-73
2023/07/24 01:23:37;;;;;;;3.43;3.07;;;18.60;99.90;;;;;;5061295;28;20425;-72
2023/07/24 01:26:04;;;;;;;3.33;2.70;;;18.60;99.90;;;;;;5063862;28;21122;-72
2023/07/24 01:28:30;;;;;;;2.80;2.57;;;18.60;99.90;;;;;;5063389;28;20900;-72
2023/07/24 01:30:57;;;;;;;3.73;3.33;;;18.70;99.90;;;;;;5067139;28;20432;-72
2023/07/24 01:33:23;;;;;;;3.70;2.97;;;18.60;99.90;;;;;;5060319;28;20184;-72
2023/07/24 01:35:53;;;;;;;4.07;3.03;;;18.70;99.90;;;;;;5062435;28;20974;-72
2023/07/24 01:38:19;;;;;;;4.20;2.63;;;18.60;99.90;;;;;;5067589;28;20455;-72
2023/07/24 01:40:45;;;;;;;3.37;2.40;;;18.60;99.90;;;;;;5061181;28;20495;-72
2023/07/24 01:43:11;;;;;;;3.03;2.73;;;18.60;99.90;;;;;;5065307;28;20794;-73
2023/07/24 01:45:37;;;;;;;3.33;2.90;;;18.60;99.90;;;;;;5058603;28;20416;-72
2023/07/24 01:48:06;;;;;;;3.17;2.47;;;18.60;99.90;;;;;;5063338;28;21014;-72
2023/07/24 01:50:32;;;;;;;3.90;3.10;;;18.60;99.90;;;;;;5062793;28;20184;-72
2023/07/24 01:52:58;;;;;;;3.40;3.00;;;18.50;99.90;;;;;;5064829;28;20916;-72
2023/07/24 01:55:24;;;;;;;4.00;2.93;;;18.50;99.90;;;;;;5060262;28;20415;-72
2023/07/24 01:57:49;;;;;;;4.30;3.10;;;18.50;99.90;;;;;;5064828;28;20497;-72
2023/07/24 02:00:15;;;;;;;5.20;3.40;;;18.50;99.90;;;;;;5066281;28;20209;-72
2023/07/24 02:02:41;;;;;;;3.50;2.67;;;18.40;99.90;;;;;;5062742;28;20173;-72
2023/07/24 02:05:07;;;;;;;3.47;3.07;;;18.40;99.90;;;;;;5063894;28;20690;-72
2023/07/24 02:07:32;;;;;;;4.13;3.20;;;18.40;99.90;;;;;;5060921;28;20209;-72
2023/07/24 02:09:58;;;;;;;4.13;3.70;;;18.40;99.90;;;;;;5060958;28;20419;-72
2023/07/24 02:12:24;;;;;;;5.67;3.00;;;18.30;99.90;;;;;;5067428;28;20216;-72
2023/07/24 02:14:51;;;;;;;4.90;3.53;;;18.30;99.90;;;;;;5059247;28;20189;-72
2023/07/24 02:17:17;;;;;;;4.37;3.23;;;18.30;99.90;;;;;;5066351;28;20642;-72
2023/07/24 02:19:44;;;;;;;4.13;3.57;;;18.30;99.90;;;;;;5057958;28;20434;-72
2023/07/24 02:22:10;;;;;;;4.37;3.77;;;18.30;99.90;;;;;;5048255;28;20419;-72
2023/07/24 02:24:36;;;;;;;6.53;3.27;;;18.30;99.90;;;;;;5048361;28;20511;-72
2023/07/24 02:27:02;;;;;;;3.60;3.03;;;18.30;99.90;;;;;;5048442;28;20451;-72
2023/07/24 02:29:27;;;;;;;4.57;3.50;;;18.40;99.90;;;;;;5063109;28;20247;-72
2023/07/24 02:31:54;;;;;;;4.67;3.10;;;18.40;99.90;;;;;;5088615;28;20449;-72
2023/07/24 02:34:24;;;;;;;4.53;4.13;;;18.40;99.90;;;;;;5088069;28;20407;-72
2023/07/24 02:36:50;;;;;;;4.33;3.80;;;18.40;99.90;;;;;;5087164;28;20484;-72
2023/07/24 02:39:16;;;;;;;4.60;3.33;;;18.30;99.90;;;;;;5088843;28;20406;-72
2023/07/24 02:41:42;;;;;;;3.90;3.50;;;18.30;99.90;;;;;;5088567;28;20406;-72
2023/07/24 02:44:07;;;;;;;3.87;3.27;;;18.30;99.90;;;;;;5088081;28;20180;-72
2023/07/24 02:46:33;;;;;;;4.90;3.33;;;18.30;99.90;;;;;;5088308;28;20221;-72
2023/07/24 02:48:59;;;;;;;4.33;3.00;;;18.30;99.90;;;;;;5088311;28;20247;-72
2023/07/24 02:51:24;;;;;;;4.40;4.00;;;18.30;99.90;;;;;;5087627;28;20673;-72
2023/07/24 02:53:50;;;;;;;6.20;3.47;;;18.30;99.90;;;;;;5087455;28;20176;-72
2023/07/24 02:56:16;;;;;;;6.43;4.00;;;18.40;99.90;;;;;;5087304;28;20287;-72
2023/07/24 02:58:41;;;;;;;4.10;3.40;;;18.30;99.90;;;;;;5088577;28;20204;-72
2023/07/24 03:01:07;;;;;;;7.47;3.80;;;18.40;99.90;;;;;;5088180;28;20263;-72
2023/07/24 03:03:34;;;;;;;4.17;3.67;;;18.40;99.90;;;;;;5077875;28;20201;-72
2023/07/24 03:06:00;;;;;;;4.70;3.87;;;18.40;99.90;;;;;;5067537;28;20916;-72
2023/07/24 03:08:26;;;;;;;6.10;3.63;;;18.40;99.90;;;;;;5067972;28;20466;-72
2023/07/24 03:10:52;;;;;;;7.20;4.00;;;18.40;99.90;;;;;;5067047;28;20403;-72
2023/07/24 03:13:18;;;;;;;9.80;3.73;;;18.40;99.90;;;;;;5067102;28;20181;-72
2023/07/24 03:15:50;;;;;;;7.37;3.43;;;18.50;99.90;;;;;;5067682;28;20486;-73
2023/07/24 03:18:16;;;;;;;4.20;3.73;;;18.50;99.90;;;;;;5067364;28;20201;-72
2023/07/24 03:20:42;;;;;;;5.43;4.07;;;18.40;99.90;;;;;;5067869;28;20822;-72
2023/07/24 03:23:07;;;;;;;5.27;3.80;;;18.50;99.90;;;;;;5066961;28;20207;-72
2023/07/24 03:25:35;;;;;;;5.13;4.33;;;18.50;99.90;;;;;;5066399;28;20211;-71
2023/07/24 03:28:01;;;;;;;4.90;4.17;;;18.40;99.90;;;;;;5067845;28;20219;-72
2023/07/24 03:30:27;;;;;;;4.37;3.80;;;18.40;99.90;;;;;;5067784;28;20777;-73
2023/07/24 03:32:53;;;;;;;5.63;4.27;;;18.40;99.90;;;;;;5067580;28;20426;-72
2023/07/24 03:35:18;;;;;;;4.33;3.80;;;18.40;99.90;;;;;;5067222;28;20176;-73
2023/07/24 03:37:44;;;;;;;4.10;3.63;;;18.40;99.90;;;;;;5065069;28;20749;-72
2023/07/24 03:40:10;;;;;;;7.03;4.47;;;18.40;99.90;;;;;;5064575;28;20185;-72
2023/07/24 03:42:36;;;;;;;4.63;3.97;;;18.40;99.90;;;;;;5065334;28;20230;-72
2023/07/24 03:45:01;;;;;;;4.73;3.87;;;18.40;99.90;;;;;;5065948;28;20486;-72
2023/07/24 03:47:27;;;;;;;7.13;4.40;;;18.40;99.90;;;;;;5070824;28;20204;-72
2023/07/24 03:49:53;;;;;;;4.23;3.43;;;18.40;99.90;;;;;;5072196;28;20230;-72
2023/07/24 03:52:19;;;;;;;4.47;3.50;;;18.40;99.90;;;;;;5071226;28;20184;-72
2023/07/24 03:54:44;;;;;;;4.83;4.03;;;18.50;99.90;;;;;;5071739;28;20177;-72
2023/07/24 03:57:10;;;;;;;4.57;4.17;;;18.50;99.90;;;;;;5067869;28;20205;-72
2023/07/24 03:59:36;;;;;;;5.20;4.17;;;18.50;99.90;;;;;;5071570;28;20183;-72
2023/07/24 04:02:02;;;;;;;6.10;4.37;;;18.40;99.90;;;;;;5071406;28;20181;-72
2023/07/24 04:04:27;;;;;;;5.90;4.10;;;18.50;99.90;;;;;;5071253;28;20442;-72
2023/07/24 04:06:53;;;;;;;4.87;4.20;;;18.40;99.90;;;;;;5071335;28;20224;-72
2023/07/24 04:09:19;;;;;;;5.53;3.83;;;18.40;99.90;;;;;;5071658;28;20173;-72
2023/07/24 04:11:45;;;;;;;4.90;4.40;;;18.40;99.90;;;;;;5071245;28;20185;-72
2023/07/24 04:14:11;;;;;;;4.47;4.03;;;18.40;99.90;;;;;;5070839;28;20177;-72
2023/07/24 04:16:36;;;;;;;5.03;4.00;;;18.40;99.90;;;;;;5068999;28;20300;-72
2023/07/24 04:19:03;;;;;;;5.10;3.90;;;18.40;99.90;;;;;;5067890;28;20529;-72
2023/07/24 04:21:29;;;;;;;6.60;4.10;;;18.40;99.90;;;;;;5071033;28;20189;-72
2023/07/24 04:23:54;;;;;;;4.60;4.07;;;18.40;99.90;;;;;;5070506;28;20399;-72
2023/07/24 04:26:20;;;;;;;8.00;4.60;;;18.40;99.90;;;;;;5068432;28;20731;-72
2023/07/24 04:28:45;;;;;;;5.60;4.13;;;18.40;99.90;;;;;;5070587;28;20176;-71
2023/07/24 04:31:11;;;;;;;4.57;3.63;;;18.40;99.90;;;;;;5070937;28;20200;-72
2023/07/24 04:33:38;;;;;;;5.93;3.90;;;18.40;99.90;;;;;;5070557;28;20169;-72
2023/07/24 04:36:04;;;;;;;6.30;4.17;;;18.40;99.90;;;;;;5067868;28;20189;-72
2023/07/24 04:38:29;;;;;;;7.23;4.47;;;18.40;99.90;;;;;;5070601;28;20501;-72
2023/07/24 04:40:55;;;;;;;5.87;3.93;;;18.40;99.90;;;;;;5068684;28;21050;-72
2023/07/24 04:43:20;;;;;;;8.10;4.37;;;18.40;99.90;;;;;;5069312;28;20705;-72
2023/07/24 04:45:46;;;;;;;5.37;4.13;;;18.50;99.90;;;;;;5066880;28;20196;-72
2023/07/24 04:48:12;;;;;;;4.37;3.97;;;18.50;99.90;;;;;;5070114;28;20209;-71
2023/07/24 04:50:37;;;;;;;6.13;4.30;;;18.40;99.90;;;;;;5069906;28;20231;-72
2023/07/24 04:53:03;;;;;;;7.03;5.23;;;18.40;99.90;;;;;;5070005;28;20188;-72
2023/07/24 04:55:29;;;;;;;7.50;5.00;;;18.40;99.90;;;;;;5062653;28;20189;-72
2023/07/24 04:57:54;;;;;;;5.27;3.93;;;18.40;99.90;;;;;;5067000;28;20279;-72
2023/07/24 05:00:20;;;;;;;6.17;4.60;;;18.40;99.90;;;;;;5065061;28;20268;-72
2023/07/24 05:02:46;;;;;;;4.93;4.20;;;18.40;99.90;;;;;;5069555;28;20188;-72
2023/07/24 05:05:11;;;;;;;5.80;4.37;;;18.40;99.90;;;;;;5069765;28;20813;-71
2023/07/24 05:07:37;;;;;;;5.37;4.20;;;18.50;99.90;;;;;;5070448;28;20563;-72
2023/07/24 05:10:03;;;;;;;5.80;4.40;;;18.50;99.90;;;;;;5070296;28;20211;-71
2023/07/24 05:12:29;;;;;;;4.93;4.17;;;18.50;99.90;;;;;;5068458;28;20288;-72
2023/07/24 05:14:54;;;;;;;5.37;3.90;;;18.60;99.90;;;;;;5070097;28;20495;-71
2023/07/24 05:17:20;;;;;;;6.70;4.50;;;18.60;99.90;;;;;;5069924;28;20688;-72
2023/07/24 05:19:46;;;;;;;6.23;4.07;;;18.50;99.90;;;;;;5070330;28;20256;-72
2023/07/24 05:22:11;;;;;;;4.80;3.60;;;18.50;99.90;;;;;;5067842;28;20899;-72
2023/07/24 05:24:37;;;;;;;4.93;4.30;;;18.50;99.90;;;;;;5069267;28;20188;-72
2023/07/24 05:27:07;;;;;;;5.67;4.53;;;18.50;99.90;;;;;;5069838;28;20654;-72
2023/07/24 05:29:33;;;;;;;5.93;4.33;;;18.60;99.90;;;;;;5077700;28;20397;-72
2023/07/24 05:31:58;;;;;;;5.27;4.13;;;18.60;99.90;;;;;;5089806;28;20447;-72
2023/07/24 05:34:25;;;;;;;6.87;4.57;;;18.50;99.90;;;;;;5089779;28;20175;-72
2023/07/24 05:36:50;;;;;;;6.60;4.73;;;18.60;99.90;;;;;;5090155;28;20253;-72
2023/07/24 05:39:16;;;;;;;6.67;4.27;;;18.60;99.90;;;;;;5090109;28;20505;-72
2023/07/24 05:41:42;;;;;;;6.03;4.27;;;18.50;99.90;;;;;;5089856;28;20176;-72
2023/07/24 05:44:07;;;;;;;5.10;3.90;;;18.60;99.90;;;;;;5089617;28;20643;-72
2023/07/24 05:46:33;;;;;;;5.20;4.73;;;18.60;99.90;;;;;;5089157;28;20204;-72
2023/07/24 05:49:01;;;;;;;7.40;4.43;;;18.50;99.90;;;;;;5089863;28;20477;-72
2023/07/24 05:51:27;;;;;;;6.50;4.80;;;18.50;99.90;;;;;;5078069;28;20725;-72
2023/07/24 05:53:52;;;;;;;5.10;4.60;;;18.50;99.90;;;;;;5069082;28;20544;-72
2023/07/24 05:56:18;;;;;;;5.03;4.33;;;18.50;99.90;;;;;;5064828;28;20443;-72
2023/07/24 05:58:44;;;;;;;5.90;4.70;;;18.60;99.90;;;;;;5069049;28;20177;-72
2023/07/24 06:01:10;;;;;;;6.30;5.30;;;18.60;99.90;;;;;;5066831;28;20181;-72
2023/07/24 06:03:36;;;;;;;8.00;4.53;;;18.60;99.90;;;;;;5068123;28;20223;-72
2023/07/24 06:06:02;;;;;;;5.40;4.27;;;18.60;99.90;;;;;;5068574;28;20440;-72
2023/07/24 06:08:27;;;;;;;6.80;4.90;;;18.60;99.90;;;;;;5066732;28;20568;-73
2023/07/24 06:10:53;;;;;;;8.33;4.43;;;18.60;99.90;;;;;;5067691;28;20192;-72
2023/07/24 06:13:20;;;;;;;7.17;5.20;;;18.70;99.90;;;;;;5065731;28;20940;-72
2023/07/24 06:15:49;;;;;;;6.37;4.77;;;18.70;99.90;;;;;;5060328;28;20507;-72
2023/07/24 06:18:15;;;;;;;5.60;4.00;;;18.60;99.90;;;;;;5066673;28;20850;-72
2023/07/24 06:20:41;;;;;;;6.50;5.40;;;18.60;99.90;;;;;;5066718;28;20495;-72
2023/07/24 06:23:06;;;;;;;5.17;4.67;;;18.60;99.90;;;;;;5067007;28;20442;-72
2023/07/24 06:25:32;;;;;;;6.00;4.60;;;18.70;99.90;;;;;;5066863;28;20625;-72
2023/07/24 06:27:58;;;;;;;6.17;4.30;;;18.60;99.90;;;;;;5066571;28;20293;-72
2023/07/24 06:30:25;;;;;;;5.47;4.87;;;18.70;99.90;;;;;;5066960;28;20287;-72
2023/07/24 06:32:51;;;;;;;4.80;4.40;;;18.60;99.90;;;;;;5066968;28;20169;-73
2023/07/24 06:35:17;;;;;;;7.40;4.63;;;18.60;99.90;;;;;;5068385;28;20412;-72
2023/07/24 06:37:43;;;;;;;5.47;4.07;;;18.70;99.90;;;;;;5068864;28;20694;-72
2023/07/24 06:40:09;;;;;;;5.17;4.67;;;18.70;99.90;;;;;;5068526;28;20180;-72
2023/07/24 06:42:35;;;;;;;5.50;4.93;;;18.80;99.90;;;;;;5068292;28;20411;-72
2023/07/24 06:45:01;;;;;;;8.50;4.90;;;18.80;99.90;;;;;;5068121;28;20470;-72
2023/07/24 06:47:27;;;;;;;4.93;4.43;;;18.80;99.90;;;;;;5068107;28;20495;-72
2023/07/24 06:49:53;;;;;;;7.73;4.77;;;18.90;99.90;;;;;;5067003;28;20188;-72
2023/07/24 06:52:18;;;;;;;5.73;5.13;;;18.90;99.90;;;;;;5067681;28;20610;-72
2023/07/24 06:54:44;;;;;;;7.83;4.77;;;19.00;99.90;;;;;;5068217;28;20173;-72
2023/07/24 06:57:09;;;;;;;5.43;4.83;;;19.00;99.90;;;;;;5066882;28;20307;-72
2023/07/24 06:59:35;;;;;;;5.10;4.47;;;19.10;99.90;;;;;;5067835;28;20181;-72
2023/07/24 07:02:01;;;;;;;7.30;4.47;;;19.20;99.90;;;;;;5067370;28;20551;-72
2023/07/24 07:04:26;;;;;;;6.40;5.03;;;19.10;99.90;;;;;;5067190;28;20197;-72
2023/07/24 07:06:52;;;;;;;5.73;5.13;;;19.20;99.90;;;;;;5067500;28;20192;-72
2023/07/24 07:09:18;;;;;;;5.97;4.73;;;19.20;99.90;;;;;;5067990;28;20252;-72
2023/07/24 07:11:44;;;;;;;5.27;4.77;;;19.20;99.90;;;;;;5068023;28;20212;-72
2023/07/24 07:14:10;;;;;;;7.27;4.30;;;19.20;99.90;;;;;;5067300;28;20180;-72
2023/07/24 07:16:36;;;;;;;6.30;4.30;;;19.20;99.90;;;;;;5066990;28;20431;-72
2023/07/24 07:19:02;;;;;;;5.10;4.60;;;19.20;99.90;;;;;;5067106;28;20185;-72
2023/07/24 07:21:27;;;;;;;7.10;4.80;;;19.20;99.90;;;;;;5066695;28;20184;-72
2023/07/24 07:23:54;;;;;;;4.97;4.47;;;19.20;99.90;;;;;;5067344;28;20420;-72
2023/07/24 07:26:20;;;;;;;8.60;5.07;;;19.20;99.90;;;;;;5066056;28;20231;-72
2023/07/24 07:28:45;;;;;;;7.00;4.87;;;19.20;99.90;;;;;;5067979;28;20411;-73
2023/07/24 07:31:11;;;;;;;5.20;4.30;;;19.10;99.90;;;;;;5088221;28;20716;-72
2023/07/24 07:33:37;;;;;;;4.60;4.03;;;19.10;99.90;;;;;;5086853;28;20204;-72
2023/07/24 07:36:06;;;;;;;4.67;4.13;;;19.10;99.90;;;;;;5086409;28;20180;-72
2023/07/24 07:38:32;;;;;;;4.73;4.17;;;19.10;99.90;;;;;;5087546;28;20179;-72
2023/07/24 07:40:58;;;;;;;7.23;5.07;;;19.10;99.90;;;;;;5087993;28;20926;-72
2023/07/24 07:43:23;;;;;;;6.80;4.57;;;19.10;99.90;;;;;;5086991;28;20420;-72
2023/07/24 07:45:49;;;;;;;5.70;4.83;;;19.10;99.90;;;;;;5085978;28;20411;-72
2023/07/24 07:48:15;;;;;;;6.00;4.60;;;19.10;99.90;;;;;;5067484;28;21090;-72
2023/07/24 07:50:41;;;;;;;5.37;4.60;;;19.10;99.90;;;;;;5066377;28;20666;-72
2023/07/24 07:53:06;;;;;;;4.83;4.20;;;19.00;99.90;;;;;;5067320;28;20226;-72
2023/07/24 07:55:32;;;;;;;6.13;4.87;;;19.10;99.90;;;;;;5066887;28;20523;-72
2023/07/24 07:57:58;;;;;;;5.50;4.90;;;19.10;99.90;;;;;;5066385;28;20197;-72
2023/07/24 08:00:23;;;;;;;5.87;4.47;;;19.10;99.90;;;;;;5067839;28;20201;-71
2023/07/24 08:02:49;;;;;;;6.70;5.30;;;19.10;99.90;;;;;;5066857;28;20260;-71
2023/07/24 08:05:15;;;;;;;6.00;4.63;;;19.00;99.90;;;;;;5067237;28;20535;-71
2023/07/24 08:07:41;;;;;;;5.73;4.43;;;19.10;99.90;;;;;;5067478;28;20239;-71
2023/07/24 08:10:07;;;;;;;5.33;4.47;;;19.10;99.90;;;;;;5066036;28;20407;-71
2023/07/24 08:12:33;;;;;;;5.80;4.87;;;19.10;99.90;;;;;;5067191;28;20408;-71
2023/07/24 08:14:59;;;;;;;4.57;4.10;;;19.10;99.90;;;;;;5066866;28;20442;-71
2023/07/24 08:17:25;;;;;;;4.60;4.20;;;19.20;99.90;;;;;;5065982;28;20467;-72
2023/07/24 08:19:51;;;;;;;4.27;3.87;;;19.20;99.90;;;;;;5067449;28;20728;-72
2023/07/24 08:22:17;;;;;;;7.53;4.50;;;19.30;99.90;;;;;;5067001;28;20174;-71
2023/07/24 08:24:44;;;;;;;5.97;4.20;;;19.40;99.90;;;;;;5067018;28;20181;-71
2023/07/24 08:27:10;;;;;;;5.27;4.27;;;19.40;99.90;;;;;;5065653;28;20484;-71
2023/07/24 08:29:37;;;;;;;5.20;3.57;;;19.50;99.90;;;;;;5067144;28;20464;-72
2023/07/24 08:32:04;;;;;;;5.90;3.60;;;19.60;99.90;;;;;;5067430;28;20741;-71
2023/07/24 08:34:30;;;;;;;5.63;3.93;;;19.70;99.90;;;;;;5071291;28;20399;-71
2023/07/24 08:36:55;;;;;;;5.27;3.40;;;19.80;99.90;;;;;;5070828;28;20427;-71
2023/07/24 08:39:21;;;;;;;4.67;3.97;;;19.90;99.90;;;;;;5070607;28;20169;-71
2023/07/24 08:41:46;;;;;;;4.50;3.40;;;20.00;99.90;;;;;;5071030;28;20230;-72
2023/07/24 08:44:13;;;;;;;4.90;3.87;;;20.10;99.90;;;;;;5069275;28;20185;-72
2023/07/24 08:46:41;;;;;;;4.17;3.70;;;20.10;99.90;;;;;;5070730;28;20248;-72
2023/07/24 08:49:13;;;;;;;3.80;3.20;;;20.20;99.90;;;;;;5070957;28;20705;-72
2023/07/24 08:51:44;;;;;;;3.50;3.20;;;20.10;99.90;;;;;;5070742;28;20403;-72
2023/07/24 08:54:11;;;;;;;4.33;3.40;;;20.10;99.90;;;;;;5070287;28;20754;-71
2023/07/24 08:56:39;;;;;;;3.77;3.20;;;20.10;99.90;;;;;;5069516;28;20465;-71
2023/07/24 08:59:05;;;;;;;4.63;3.40;;;20.00;99.90;;;;;;5070532;28;20411;-72
2023/07/24 09:01:31;;;;;;;3.70;3.40;;;19.90;99.90;;;;;;5070439;28;20545;-71
2023/07/24 09:03:57;;;;;;;4.70;3.40;;;19.90;99.90;;;;;;5068434;28;20453;-72
2023/07/24 09:06:22;;;;;;;3.93;3.50;;;19.80;99.90;;;;;;5069821;28;20427;-71
2023/07/24 09:08:48;;;;;;;3.07;2.77;;;19.80;99.90;;;;;;5070045;28;20181;-72
2023/07/24 09:11:15;;;;;;;4.00;2.87;;;19.70;99.90;;;;;;5069646;28;20264;-72
2023/07/24 09:13:44;;;;;;;4.33;3.17;;;19.70;99.90;;;;;;5069700;28;20477;-71
2023/07/24 09:16:24;;;;;;;4.13;3.30;;;19.60;99.90;;;;;;5069495;28;20404;-72
2023/07/24 09:18:51;;;;;;;4.03;3.40;;;19.70;99.90;;;;;;5070208;28;20415;-71
2023/07/24 09:21:27;;;;;;;5.63;3.17;;;19.60;99.90;;;;;;5069788;28;20423;-71
2023/07/24 09:23:53;;;;;;;4.00;2.90;;;19.70;99.90;;;;;;5069399;28;20446;-72
2023/07/24 09:26:18;;;;;;;3.27;2.97;;;19.70;99.90;;;;;;5069316;28;20455;-72
2023/07/24 09:28:52;;;;;;;5.30;3.60;;;19.70;99.90;;;;;;5071343;28;20179;-72
2023/07/24 09:31:18;;;;;;;4.10;3.43;;;19.60;99.90;;;;;;5089869;28;20210;-71
2023/07/24 09:33:43;;;;;;;3.87;3.37;;;19.60;99.90;;;;;;5089532;28;20407;-72
2023/07/24 09:36:10;;;;;;;4.77;3.60;;;19.60;99.90;;;;;;5089541;28;20180;-72
2023/07/24 09:38:40;;;;;;;3.70;3.30;;;19.60;99.90;;;;;;5089885;28;20180;-72
2023/07/24 09:41:06;;;;;;;3.50;3.20;;;19.60;99.90;;;;;;5089767;28;20502;-72
2023/07/24 09:43:35;;;;;;;4.47;4.07;;;19.60;99.90;;;;;;5088217;28;20411;-72
2023/07/24 09:46:03;;;;;;;4.07;2.83;;;19.70;99.90;;;;;;5089263;28;20423;-72
2023/07/24 09:48:30;;;;;;;4.20;3.07;;;19.70;99.90;;;;;;5089633;28;20807;-71
2023/07/24 09:50:59;;;;;;;5.20;3.70;;;19.70;99.90;;;;;;5089771;28;20502;-72
2023/07/24 09:53:31;;;;;;;3.60;2.90;;;19.80;99.90;;;;;;5088398;28;20406;-72
2023/07/24 09:56:03;;;;;;;3.73;3.00;;;19.70;99.90;;;;;;5068322;28;20771;-72
2023/07/24 09:58:32;;;;;;;3.77;3.10;;;19.80;99.90;;;;;;5069310;28;20533;-72
2023/07/24 10:00:58;;;;;;;5.17;3.97;;;19.80;99.90;;;;;;5069321;28;20415;-73
2023/07/24 10:03:24;;;;;;;4.20;3.50;;;19.80;99.90;;;;;;5068232;28;20454;-72
2023/07/24 10:05:52;;;;;;;4.00;3.33;;;19.70;99.90;;;;;;5069021;28;20943;-72
2023/07/24 10:08:19;;;;;;;4.57;3.13;;;19.70;99.90;;;;;;5068479;28;20459;-73
2023/07/24 10:10:45;;;;;;;3.83;3.40;;;19.60;99.90;;;;;;5068659;28;20408;-72
2023/07/24 10:13:14;;;;;;;5.30;3.80;;;19.50;99.90;;;;;;5068164;28;20407;-73
2023/07/24 10:15:42;;;;;;;5.70;3.63;;;19.40;99.90;;;;;;5068322;28;20779;-73
2023/07/24 10:18:09;;;;;;;4.37;3.70;;;19.40;99.90;;;;;;5068692;28;20427;-73
2023/07/24 10:20:36;;;;;;;10.30;3.90;;;19.40;99.90;;;;;;5067298;28;20430;-72
2023/07/24 10:23:07;;;;;;;3.60;3.10;;;19.20;99.90;;;;;;5068785;28;20420;-71
2023/07/24 10:25:35;;;;;;;5.60;4.50;;;19.30;99.90;;;;;;5068590;28;20426;-71
2023/07/24 10:28:10;;;;;;;4.47;3.83;;;19.30;99.90;;;;;;5068989;28;20913;-71
2023/07/24 10:30:37;;;;;;;4.10;3.40;;;19.30;99.90;;;;;;5082313;28;20410;-72
2023/07/24 10:33:17;;;;;;;4.23;3.83;;;19.30;99.90;;;;;;5051363;28;20431;-71
2023/07/24 10:35:54;;;;;;;3.93;3.53;;;19.30;99.90;;;;;;5061148;28;20415;-71
2023/07/24 10:38:33;;;;;;;5.97;4.80;;;19.40;99.90;;;;;;5061385;28;20473;-70
2023/07/24 10:41:04;;;;;;;6.37;4.77;;;19.50;99.90;;;;;;5058946;28;20758;-70
2023/07/24 10:43:45;;;;;;;4.67;4.10;;;19.50;99.90;;;;;;5062399;28;20420;-70
2023/07/24 10:46:12;;;;;;;4.33;3.93;;;19.70;99.90;;;;;;5064366;28;20415;-71
2023/07/24 10:48:41;;;;;;;4.60;4.20;;;19.70;99.90;;;;;;5059451;28;20959;-71
2023/07/24 10:51:09;;;;;;;5.80;4.93;;;19.80;99.90;;;;;;5063074;28;20415;-72
2023/07/24 10:53:38;;;;;;;5.83;4.27;;;19.80;99.90;;;;;;5058589;28;20908;-71
2023/07/24 10:56:06;;;;;;;4.70;4.30;;;19.90;99.90;;;;;;5060946;28;20415;-72
2023/07/24 10:58:32;;;;;;;4.67;4.27;;;20.00;99.90;;;;;;5064366;28;20416;-71
2023/07/24 11:00:58;;;;;;;4.60;4.20;;;20.00;99.90;;;;;;5060258;28;20480;-72
2023/07/24 11:03:25;;;;;;;5.07;4.57;;;20.10;99.90;;;;;;5066446;28;20443;-72
2023/07/24 11:05:51;;;;;;;4.63;4.23;;;20.10;99.90;;;;;;5062589;28;20768;-72
2023/07/24 11:08:19;;;;;;;5.30;4.80;;;20.10;99.90;;;;;;5061085;28;20781;-72
2023/07/24 11:10:48;;;;;;;5.50;4.63;;;20.10;99.90;;;;;;5065046;28;20173;-72
2023/07/24 11:13:22;;;;;;;5.47;4.50;;;20.10;99.90;;;;;;5058428;28;20458;-72
2023/07/24 11:15:49;;;;;;;5.37;4.87;;;20.00;99.90;;;;;;5061801;28;20413;-72
2023/07/24 11:18:15;;;;;;;4.37;3.97;;;20.00;99.90;;;;;;5065822;28;20479;-72
2023/07/24 11:20:46;;;;;;;6.17;4.40;;;20.00;99.90;;;;;;5059229;28;20506;-72
2023/07/24 11:23:12;;;;;;;5.73;4.57;;;20.00;99.90;;;;;;5064032;28;20419;-72
2023/07/24 11:25:38;;;;;;;5.53;4.67;;;20.00;99.90;;;;;;5058794;28;20412;-72
2023/07/24 11:28:09;;;;;;;5.47;4.37;;;20.00;99.90;;;;;;5062574;28;20846;-72
2023/07/24 11:30:35;;;;;;;4.80;4.40;;;20.00;99.90;;;;;;5069348;28;20422;-72
2023/07/24 11:33:04;;;;;;;5.33;4.77;;;19.90;99.90;;;;;;5065184;28;20421;-72
2023/07/24 11:35:30;;;;;;;4.83;4.43;;;20.00;99.90;;;;;;5058769;28;20420;-72
2023/07/24 11:37:56;;;;;;;4.63;4.20;;;19.80;99.90;;;;;;5060709;28;20435;-72
2023/07/24 11:40:35;;;;;;;4.90;4.37;;;19.80;99.90;;;;;;5060223;28;20430;-72
2023/07/24 11:43:02;;;;;;;5.00;4.50;;;19.70;99.90;;;;;;5062604;28;20433;-72
2023/07/24 11:45:29;;;;;;;5.13;4.00;;;19.60;99.90;;;;;;5058124;28;20415;-72
2023/07/24 11:47:56;;;;;;;5.90;5.30;;;19.60;99.90;;;;;;5060686;28;20462;-72
2023/07/24 11:50:23;;;;;;;6.43;5.43;;;19.50;99.90;;;;;;5056310;28;20411;-72
2023/07/24 11:52:55;;;;;;;7.20;5.77;;;19.50;99.90;;;;;;5060882;28;20460;-72
2023/07/24 11:55:31;;;;;;;9.83;5.40;;;19.40;99.90;;;;;;5062511;28;20408;-72
2023/07/24 11:57:58;;;;;;;5.67;5.03;;;19.40;99.90;;;;;;5057134;28;20438;-72
2023/07/24 12:00:25;;;;;;;8.87;5.83;;;19.40;99.90;;;;;;5061891;28;20415;-72
2023/07/24 12:02:51;;;;;;;8.93;6.63;;;19.40;99.90;;;;;;5066383;28;20773;-72
2023/07/24 12:05:17;;;;;;;7.07;6.00;;;19.40;99.90;;;;;;5060457;28;20822;-72
2023/07/24 12:07:45;;;;;;;7.30;6.60;;;19.30;99.90;;;;;;5065809;28;20591;-72
2023/07/24 12:10:26;;;;;;;4.10;3.37;;;19.20;99.90;;;;;;5061910;28;20423;-71
2023/07/24 12:12:51;;;;;;;5.43;2.87;;;18.90;99.90;;;;;;5063991;28;20913;-72
2023/07/24 12:15:17;;;;;;;3.13;2.03;;;18.70;99.90;;;;;;5069544;28;20426;-72
2023/07/24 12:17:43;;;;;;;2.60;1.90;;;18.50;99.90;;;;;;5063526;28;20429;-71
2023/07/24 12:20:09;;;;;;;7.27;1.97;;;18.30;99.90;;;;;;5067549;28;20188;-72
2023/07/24 12:22:38;;;;;;;19.10;2.27;;;18.20;99.90;;;;;;5062083;28;20289;-72
2023/07/24 12:25:06;;;;;;;4.30;2.20;;;18.00;99.90;;;;;;5065123;28;20771;-72
2023/07/24 12:27:32;;;;;;;1.40;1.20;;;18.00;99.90;;;;;;5070363;28;20982;-72
2023/07/24 12:29:58;;;;;;;3.10;1.80;;;17.90;99.90;;;;;;5073934;28;20492;-72
2023/07/24 12:32:24;;;;;;;3.00;1.40;;;17.90;99.90;;;;;;5068919;28;20406;-72
2023/07/24 12:34:53;;;;;;;2.20;1.33;;;17.80;99.90;;;;;;5069771;28;20497;-72
2023/07/24 12:37:19;;;;;;;2.23;1.20;;;17.70;99.90;;;;;;5064885;28;20208;-72
2023/07/24 12:39:46;;;;;;;2.40;1.40;;;17.60;99.90;;;;;;5064050;28;20749;-72
2023/07/24 12:42:12;;;;;;;2.40;1.30;;;17.50;99.90;;;;;;5068915;28;20176;-72
2023/07/24 12:44:38;;;;;;;2.33;1.07;;;17.30;99.90;;;;;;5061528;28;20464;-72
2023/07/24 12:47:04;;;;;;;2.03;1.00;;;17.30;99.90;;;;;;5063593;28;20543;-72